Time;durP1;ratioP1;P1;durP2;ratioP2;P2;SDS_P1;SDS_P2;PMS_P1;PMS_P2;Temp;Humidity;BMP_temperature;BMP_pressure;BME280_temperature;BME280_humidity;BME280_pressure;Samples;Min_cycle;Max_cycle;Signal;HPM_P1;HPM_P2
2023/06/21 00:02:20;;;;;;;14.93;10.25;;;;;;;16.89;100.00;99390.97;5159085;27;20057;-57
2023/06/21 00:04:46;;;;;;;14.45;11.02;;;;;;;16.88;100.00;99401.28;5159581;27;20046;-58
2023/06/21 00:07:12;;;;;;;15.05;10.13;;;;;;;16.82;100.00;99413.94;5158677;27;20053;-58
2023/06/21 00:09:39;;;;;;;16.48;10.82;;;;;;;16.74;100.00;99417.91;5159122;27;20095;-57
2023/06/21 00:12:06;;;;;;;11.13;9.77;;;;;;;16.62;100.00;99416.34;5158951;27;20313;-58
2023/06/21 00:14:31;;;;;;;15.48;11.95;;;;;;;16.63;100.00;99423.47;5158801;27;20435;-59
2023/06/21 00:16:58;;;;;;;15.13;11.77;;;;;;;16.58;100.00;99415.56;5159027;27;20141;-59
2023/06/21 00:19:24;;;;;;;13.27;11.05;;;;;;;16.58;100.00;99410.03;5158772;27;20137;-58
2023/06/21 00:21:50;;;;;;;16.92;10.43;;;;;;;16.58;100.00;99409.25;5159093;27;20097;-59
2023/06/21 00:24:16;;;;;;;17.63;12.30;;;;;;;16.62;100.00;99394.19;5158693;27;20435;-54
2023/06/21 00:26:42;;;;;;;16.75;11.30;;;;;;;16.59;100.00;99389.47;5158929;27;20081;-54
2023/06/21 00:29:08;;;;;;;16.27;12.00;;;;;;;16.63;100.00;99383.94;5158732;27;20086;-52
2023/06/21 00:31:34;;;;;;;14.00;10.85;;;;;;;16.54;100.00;99394.63;5159045;27;20077;-55
2023/06/21 00:34:00;;;;;;;18.50;11.43;;;;;;;16.62;100.00;99379.56;5158540;27;20102;-59
2023/06/21 00:36:26;;;;;;;14.75;11.60;;;;;;;16.57;100.00;99391.06;5158955;27;20133;-55
2023/06/21 00:38:52;;;;;;;16.73;12.40;;;;;;;16.51;100.00;99387.91;5158462;27;20051;-57
2023/06/21 00:41:18;;;;;;;16.50;12.07;;;;;;;16.48;100.00;99386.72;5158668;27;20092;-58
2023/06/21 00:43:44;;;;;;;16.95;11.43;;;;;;;16.43;100.00;99392.69;5158742;27;20051;-59
2023/06/21 00:46:10;;;;;;;18.38;12.98;;;;;;;16.44;100.00;99396.25;5158569;27;20053;-58
2023/06/21 00:48:36;;;;;;;19.05;12.32;;;;;;;16.34;100.00;99388.75;5158586;27;20070;-56
2023/06/21 00:51:02;;;;;;;16.38;12.40;;;;;;;16.44;100.00;99374.09;5157712;27;20420;-54
2023/06/21 00:53:30;;;;;;;14.27;12.30;;;;;;;16.43;100.00;99375.31;5158645;27;20107;-53
2023/06/21 00:55:56;;;;;;;17.65;11.95;;;;;;;16.45;100.00;99370.13;5158343;27;20057;-57
2023/06/21 00:58:23;;;;;;;23.77;12.90;;;;;;;16.45;100.00;99368.16;5158666;27;20051;-54
2023/06/21 01:00:50;;;;;;;21.38;19.52;;;;;;;16.42;100.00;99366.19;5158152;27;20408;-57
2023/06/21 01:03:16;;;;;;;19.63;11.88;;;;;;;16.37;100.00;99365.81;5158582;27;20051;-53
2023/06/21 01:05:45;;;;;;;18.55;11.70;;;;;;;16.44;100.00;99355.53;5158383;27;20047;-54
2023/06/21 01:08:22;;;;;;;16.50;12.90;;;;;;;16.35;100.00;99355.16;5158248;27;20127;-58
2023/06/21 01:10:58;;;;;;;20.45;18.45;;;;;;;16.39;100.00;99353.19;5158142;27;20412;-58
2023/06/21 01:13:33;;;;;;;21.38;19.27;;;;;;;16.28;100.00;99324.72;5157970;27;20046;-52
2023/06/21 01:16:05;;;;;;;18.83;12.85;;;;;;;16.36;100.00;99325.50;5158366;27;20145;-55
2023/06/21 01:18:32;;;;;;;22.05;13.30;;;;;;;16.46;100.00;99322.72;5157950;27;20047;-53
2023/06/21 01:20:59;;;;;;;16.05;12.20;;;;;;;16.50;100.00;99335.75;5158362;27;20053;-58
2023/06/21 01:23:51;;;;;;;15.88;12.65;;;;;;;16.50;100.00;99355.13;5157830;27;20134;-56
2023/06/21 01:26:32;;;;;;;18.80;12.25;;;;;;;16.50;100.00;99357.88;5158080;27;20204;-53
2023/06/21 01:29:06;;;;;;;22.73;13.35;;;;;;;16.36;100.00;99337.38;5158005;27;20050;-59
2023/06/21 01:31:32;;;;;;;;;;;;;;;16.44;100.00;99327.84;5158378;27;20050;-59
2023/06/21 01:33:59;;;;;;;21.40;14.05;;;;;;;16.51;100.00;99335.34;5158094;27;19923;-51
2023/06/21 01:36:25;;;;;;;17.00;12.95;;;;;;;16.56;100.00;99345.19;5157727;27;20051;-55
2023/06/21 01:38:54;;;;;;;18.02;12.68;;;;;;;16.56;100.00;99361.81;5158124;27;20078;-52
2023/06/21 01:41:20;;;;;;;19.10;13.80;;;;;;;16.54;100.00;99369.72;5157696;27;20061;-52
2023/06/21 01:43:46;;;;;;;15.95;12.77;;;;;;;16.53;100.00;99376.44;5158083;27;20051;-56
2023/06/21 01:46:14;;;;;;;21.83;13.27;;;;;;;16.52;100.00;99391.47;5157506;27;20082;-55
2023/06/21 01:48:42;;;;;;;17.75;12.45;;;;;;;16.28;100.00;99391.13;5157449;27;20050;-58
2023/06/21 01:51:09;;;;;;;19.98;13.18;;;;;;;16.55;100.00;99365.75;5158098;27;20055;-55
2023/06/21 01:53:37;;;;;;;18.70;13.55;;;;;;;16.41;100.00;99367.38;5157676;27;20054;-52
2023/06/21 01:56:07;;;;;;;19.60;13.65;;;;;;;16.57;100.00;99347.56;5157597;27;20396;-54
2023/06/21 01:58:33;;;;;;;17.98;14.38;;;;;;;16.55;100.00;99352.72;5157607;27;20057;-54
2023/06/21 02:00:59;;;;;;;18.17;13.43;;;;;;;16.62;100.00;99363.75;5157631;27;20408;-58
2023/06/21 02:03:28;;;;;;;18.05;13.82;;;;;;;16.62;100.00;99376.81;5158191;27;20082;-53
2023/06/21 02:05:55;;;;;;;18.20;14.27;;;;;;;16.62;100.00;99383.13;5161260;27;20129;-55
2023/06/21 02:08:22;;;;;;;15.73;12.32;;;;;;;16.62;100.00;99391.44;5160924;27;20137;-59
2023/06/21 02:10:49;;;;;;;16.98;12.10;;;;;;;16.58;100.00;99406.47;5161376;27;20046;-58
2023/06/21 02:13:16;;;;;;;21.42;13.68;;;;;;;16.58;100.00;99410.03;5160781;27;20115;-59
2023/06/21 02:15:42;;;;;;;23.17;13.35;;;;;;;16.58;100.00;99420.31;5161101;27;20313;-57
2023/06/21 02:18:09;;;;;;;24.05;21.88;;;;;;;16.45;100.00;99417.97;5161122;27;20055;-52
2023/06/21 02:20:36;;;;;;;20.58;14.25;;;;;;;16.56;100.00;99414.38;5160997;27;20531;-53
2023/06/21 02:23:02;;;;;;;19.90;13.40;;;;;;;16.90;100.00;99414.72;5161023;27;20203;-55
2023/06/21 02:25:28;;;;;;;15.93;12.82;;;;;;;17.21;100.00;99449.00;5160926;27;20062;-57
2023/06/21 02:27:54;;;;;;;15.52;12.60;;;;;;;17.48;100.00;99487.28;5160763;27;20408;-54
2023/06/21 02:30:20;;;;;;;18.23;13.20;;;;;;;17.80;100.00;99526.75;5160740;27;20107;-53
2023/06/21 02:32:46;;;;;;;15.98;11.32;;;;;;;18.22;100.00;99583.16;5161008;27;20319;-52
2023/06/21 02:35:12;;;;;;;14.02;11.48;;;;;;;18.45;100.00;99640.91;5160610;27;20141;-58
2023/06/21 02:37:39;;;;;;;19.65;17.88;;;;;;;18.71;100.00;99655.41;5161085;27;20468;-59
2023/06/21 02:40:09;;;;;;;13.75;11.45;;;;;;;18.96;100.00;99666.34;5160469;27;20078;-58
2023/06/21 02:42:36;;;;;;;15.23;11.30;;;;;;;18.97;100.00;99654.06;5160631;27;20055;-54
2023/06/21 02:45:02;;;;;;;15.45;11.30;;;;;;;19.32;100.00;99627.13;5160599;27;20047;-59
2023/06/21 02:47:28;;;;;;;13.88;11.30;;;;;;;19.61;100.00;99563.63;5160500;27;20059;-55
2023/06/21 02:49:53;;;;;;;13.32;11.27;;;;;;;19.84;100.00;99499.00;5160402;27;20058;-54
2023/06/21 02:52:19;;;;;;;12.45;10.68;;;;;;;20.04;100.00;99401.69;5160673;27;20137;-55
2023/06/21 02:54:46;;;;;;;15.73;14.43;;;;;;;20.24;100.00;99338.50;5160547;27;20046;-53
2023/06/21 02:57:12;;;;;;;13.38;10.80;;;;;;;20.45;100.00;99223.13;5160180;27;20366;-52
2023/06/21 02:59:38;;;;;;;11.57;10.20;;;;;;;20.64;100.00;99154.72;5160420;27;20082;-52
2023/06/21 03:02:05;;;;;;;11.60;10.40;;;;;;;20.77;100.00;99080.38;5160049;27;20051;-57
2023/06/21 03:04:31;;;;;;;14.98;10.70;;;;;;;21.06;100.00;98982.91;5160497;27;20102;-57
2023/06/21 03:06:57;;;;;;;12.40;10.60;;;;;;;21.26;100.00;98865.66;5160272;27;20133;-59
2023/06/21 03:09:23;;;;;;;12.07;9.30;;;;;;;21.45;100.00;98793.41;5160448;27;20146;-53
2023/06/21 03:11:49;;;;;;;12.20;10.18;;;;;;;21.71;100.00;98663.03;5160012;27;20042;-53
2023/06/21 03:14:15;;;;;;;14.88;9.98;;;;;;;21.97;100.00;98585.56;5159373;27;20141;-52
2023/06/21 03:16:41;;;;;;;11.80;9.98;;;;;;;22.31;100.00;98493.28;5160190;27;20145;-54
2023/06/21 03:19:08;;;;;;;14.70;10.55;;;;;;;22.21;100.00;98479.78;5159999;27;20050;-56
2023/06/21 03:21:34;;;;;;;16.25;14.73;;;;;;;22.23;100.00;98494.06;5160128;27;20050;-58
2023/06/21 03:24:01;;;;;;;17.38;12.27;;;;;;;22.17;100.00;98454.03;5159703;27;20140;-58
2023/06/21 03:26:27;;;;;;;14.02;11.18;;;;;;;22.11;100.00;98542.34;5160175;27;20077;-60
2023/06/21 03:28:54;;;;;;;15.27;11.48;;;;;;;21.72;100.00;98597.63;5159665;27;20412;-56
2023/06/21 03:31:20;;;;;;;14.80;11.30;;;;;;;21.74;100.00;98690.78;5160049;27;20042;-55
2023/06/21 03:33:46;;;;;;;15.73;14.32;;;;;;;21.77;100.00;98725.38;5159648;27;20042;-57
2023/06/21 03:36:12;;;;;;;12.38;9.85;;;;;;;21.73;100.00;98710.78;5159976;27;20061;-55
2023/06/21 03:38:38;;;;;;;13.25;11.63;;;;;;;21.68;100.00;98750.41;5159574;27;20054;-52
2023/06/21 03:41:04;;;;;;;17.33;11.25;;;;;;;21.63;100.00;98760.13;5159720;27;20129;-57
2023/06/21 03:43:30;;;;;;;16.00;14.50;;;;;;;21.41;100.00;98868.03;5159391;27;20400;-59
2023/06/21 03:45:58;;;;;;;19.48;10.88;;;;;;;21.07;100.00;98956.59;5159619;27;20141;-59
2023/06/21 03:48:24;;;;;;;14.75;11.52;;;;;;;21.30;100.00;98977.06;5159220;27;20424;-58
2023/06/21 03:50:50;;;;;;;16.92;11.50;;;;;;;21.34;100.00;98953.44;5159231;27;20046;-55
2023/06/21 03:53:16;;;;;;;14.52;10.85;;;;;;;21.42;100.00;98992.28;5159638;27;20142;-55
2023/06/21 03:55:43;;;;;;;15.85;12.02;;;;;;;21.68;100.00;98907.41;5159380;27;20142;-55
2023/06/21 03:58:09;;;;;;;14.30;11.40;;;;;;;21.92;100.00;98782.25;5159464;27;20050;-58
2023/06/21 04:00:35;;;;;;;17.80;11.90;;;;;;;22.54;100.00;98648.38;5159128;27;20046;-52
2023/06/21 04:03:01;;;;;;;13.00;11.38;;;;;;;23.06;100.00;98455.88;5159514;27;20138;-54
2023/06/21 04:05:27;;;;;;;15.32;12.65;;;;;;;23.07;100.00;98356.78;5159138;27;20046;-54
2023/06/21 04:07:53;;;;;;;16.05;11.85;;;;;;;23.61;100.00;98271.09;5159458;27;20047;-54
2023/06/21 04:10:19;;;;;;;14.15;11.52;;;;;;;24.12;100.00;98241.38;5158993;27;20375;-56
2023/06/21 04:12:45;;;;;;;14.15;11.15;;;;;;;24.33;100.00;98234.69;5158950;27;20070;-57
2023/06/21 04:15:11;;;;;;;14.57;10.88;;;;;;;24.88;100.00;98244.56;5159157;27;20051;-58
2023/06/21 04:17:37;;;;;;;15.90;14.40;;;;;;;24.98;100.00;98260.03;5159050;27;20046;-52
2023/06/21 04:20:10;;;;;;;15.20;13.80;;;;;;;25.26;100.00;98268.91;5159104;27;20093;-59
2023/06/21 04:22:36;;;;;;;12.95;10.75;;;;;;;25.58;100.00;98339.28;5158675;27;20062;-52
2023/06/21 04:25:03;;;;;;;13.70;12.23;;;;;;;25.67;100.00;98339.16;5159342;27;20050;-57
2023/06/21 04:27:29;;;;;;;15.93;14.18;;;;;;;26.11;100.00;98386.00;5157734;27;20043;-53
2023/06/21 04:29:55;;;;;;;15.48;14.05;;;;;;;26.23;100.00;98431.91;5159090;27;20050;-58
2023/06/21 04:32:21;;;;;;;16.42;14.02;;;;;;;26.48;100.00;98458.56;5158587;27;20089;-59
2023/06/21 04:34:48;;;;;;;16.65;14.80;;;;;;;26.87;100.00;98509.69;5158888;27;20074;-59
2023/06/21 04:37:14;;;;;;;16.52;14.75;;;;;;;26.94;100.00;98553.50;5158276;27;20113;-59
2023/06/21 04:39:40;;;;;;;15.73;14.13;;;;;;;26.89;100.00;98554.19;5158612;27;20133;-57
2023/06/21 04:42:07;;;;;;;15.02;13.13;;;;;;;26.99;100.00;98493.72;5158582;27;20085;-60
2023/06/21 04:44:33;;;;;;;17.17;14.52;;;;;;;27.29;100.00;98589.25;5158502;27;20062;-60
2023/06/21 04:47:00;;;;;;;16.17;14.57;;;;;;;27.36;100.00;98657.16;5158739;27;20051;-56
2023/06/21 04:49:26;;;;;;;17.15;13.85;;;;;;;27.44;100.00;98646.25;5158382;27;20046;-58
2023/06/21 04:51:53;;;;;;;17.20;13.85;;;;;;;27.39;100.00;98652.56;5158521;27;20137;-52
2023/06/21 04:54:22;;;;;;;15.25;13.85;;;;;;;27.32;100.00;98645.31;5158065;27;20103;-58
2023/06/21 04:56:49;;;;;;;14.18;12.77;;;;;;;27.69;100.00;98727.19;5158546;27;20086;-54
2023/06/21 04:59:14;;;;;;;14.38;12.98;;;;;;;28.08;100.00;98748.66;5158089;27;20064;-61
2023/06/21 05:01:40;;;;;;;15.32;13.73;;;;;;;28.06;100.00;98752.00;5158538;27;20047;-59
2023/06/21 05:04:06;;;;;;;14.77;13.05;;;;;;;27.94;100.00;98708.03;5158000;27;20115;-55
2023/06/21 05:06:32;;;;;;;12.63;11.52;;;;;;;28.17;100.00;98816.16;5158304;27;20190;-56
2023/06/21 05:08:58;;;;;;;11.88;10.65;;;;;;;28.57;100.00;98852.00;5157971;27;20133;-49
2023/06/21 05:11:25;;;;;;;14.38;11.40;;;;;;;29.22;100.00;98848.03;5157859;27;20368;-56
2023/06/21 05:13:51;;;;;;;13.25;11.63;;;;;;;29.66;100.00;98883.59;5157991;27;20043;-52
2023/06/21 05:16:17;;;;;;;13.82;11.05;;;;;;;29.75;100.00;98900.31;5157932;27;20053;-53
2023/06/21 05:18:43;;;;;;;12.90;11.70;;;;;;;30.11;100.00;98938.31;5158321;27;20087;-57
2023/06/21 05:21:09;;;;;;;13.27;11.75;;;;;;;30.24;100.00;98952.84;5157803;27;20141;-52
2023/06/21 05:23:35;;;;;;;11.88;10.68;;;;;;;30.18;100.00;98968.97;5158013;27;20081;-57
2023/06/21 05:26:01;;;;;;;12.63;10.57;;;;;;;30.71;100.00;98929.91;5157536;27;20051;-59
2023/06/21 05:28:27;;;;;;;11.43;10.23;;;;;;;31.15;100.00;98936.97;5157812;27;20082;-59
2023/06/21 05:30:53;;;;;;;13.45;10.15;;;;;;;31.45;100.00;98945.03;5157670;27;20327;-59
2023/06/21 05:33:19;;;;;;;16.40;11.25;;;;;;;31.54;100.00;98968.22;5158020;27;20102;-59
2023/06/21 05:35:45;;;;;;;11.75;10.55;;;;;;;31.38;100.00;98966.91;5157393;27;20143;-57
2023/06/21 05:38:11;;;;;;;14.18;11.43;;;;;;;31.67;100.00;98996.06;5159700;27;20412;-55
2023/06/21 05:40:37;;;;;;;12.65;11.35;;;;;;;31.57;100.00;98997.59;5161418;27;20320;-52
2023/06/21 05:43:05;;;;;;;13.00;10.52;;;;;;;31.64;100.00;98980.06;5161552;27;20058;-56
2023/06/21 05:45:32;;;;;;;12.32;10.48;;;;;;;32.06;100.00;98995.31;5161297;27;20408;-55
2023/06/21 05:47:58;;;;;;;14.68;12.40;;;;;;;32.51;100.00;99004.50;5161360;27;20051;-58
2023/06/21 05:50:24;;;;;;;13.27;11.30;;;;;;;32.48;100.00;99036.00;5161462;27;20385;-57
2023/06/21 05:52:50;;;;;;;13.13;10.43;;;;;;;32.75;100.00;99034.34;5161008;27;20057;-56
2023/06/21 05:55:16;;;;;;;13.80;10.68;;;;;;;32.61;100.00;99046.78;5161239;27;20308;-53
2023/06/21 05:57:42;;;;;;;11.52;10.10;;;;;;;32.93;100.00;99028.09;5160763;27;20062;-55
2023/06/21 06:00:09;;;;;;;10.18;9.18;;;;;;;32.75;100.00;99034.34;5161199;27;20050;-59
2023/06/21 06:02:36;;;;;;;12.55;10.82;;;;;;;32.83;100.00;99026.88;5160582;27;20243;-53
2023/06/21 06:05:02;;;;;;;12.73;11.52;;;;;;;32.73;100.00;99036.97;5161011;27;20050;-53
2023/06/21 06:07:28;;;;;;;10.32;9.43;;;;;;;32.84;98.28;99056.78;5160746;27;20057;-55
2023/06/21 06:09:54;;;;;;;10.27;9.27;;;;;;;33.10;95.00;99064.97;5160652;27;20123;-55
2023/06/21 06:12:21;;;;;;;11.88;9.48;;;;;;;33.02;93.83;99075.31;5160635;27;20102;-55
2023/06/21 06:14:47;;;;;;;12.00;9.05;;;;;;;33.27;92.84;99073.44;5160566;27;20042;-58
2023/06/21 06:17:13;;;;;;;9.75;8.75;;;;;;;33.01;89.89;99083.06;5160579;27;20047;-55
2023/06/21 06:19:40;;;;;;;9.50;8.60;;;;;;;33.30;93.08;99068.78;5160631;27;20046;-54
2023/06/21 06:22:06;;;;;;;9.55;8.30;;;;;;;33.43;86.06;99080.31;5160465;27;20059;-53
2023/06/21 06:24:32;;;;;;;9.65;7.70;;;;;;;33.72;74.85;99099.56;5160152;27;20410;-54
2023/06/21 06:26:58;;;;;;;8.98;8.18;;;;;;;33.61;76.84;99090.31;5160128;27;20042;-56
2023/06/21 06:29:24;;;;;;;12.65;8.70;;;;;;;34.11;76.21;99095.66;5160192;27;20054;-56
2023/06/21 06:31:51;;;;;;;9.50;8.52;;;;;;;34.36;77.15;99095.72;5160143;27;20324;-57
2023/06/21 06:34:17;;;;;;;11.23;8.85;;;;;;;34.26;77.28;99091.69;5160121;27;20079;-59
2023/06/21 06:36:43;;;;;;;18.83;9.82;;;;;;;34.22;81.06;99094.03;5160263;27;20490;-59
2023/06/21 06:39:10;;;;;;;9.25;8.25;;;;;;;34.41;83.50;99080.66;5159965;27;20471;-58
2023/06/21 06:41:36;;;;;;;9.48;8.57;;;;;;;34.83;78.46;99087.78;5160132;27;20197;-59
2023/06/21 06:44:02;;;;;;;9.27;8.48;;;;;;;34.69;78.68;99082.47;5160131;27;20043;-57
2023/06/21 06:46:28;;;;;;;9.25;8.13;;;;;;;34.76;77.23;99076.97;5160475;27;20068;-54
2023/06/21 06:48:54;;;;;;;11.13;8.63;;;;;;;35.18;80.05;99085.31;5159162;27;20144;-53
2023/06/21 06:51:20;;;;;;;9.23;8.38;;;;;;;35.17;76.24;99086.63;5160598;27;20065;-50
2023/06/21 06:53:47;;;;;;;10.35;8.30;;;;;;;34.99;83.98;99068.94;5159912;27;20090;-56
2023/06/21 06:56:13;;;;;;;10.77;7.65;;;;;;;35.13;78.62;99079.16;5160539;27;20043;-60
2023/06/21 06:58:39;;;;;;;9.43;7.85;;;;;;;35.21;78.23;99070.00;5160089;27;20050;-61
2023/06/21 07:01:05;;;;;;;9.55;8.00;;;;;;;35.42;73.67;99084.47;5160256;27;20453;-56
2023/06/21 07:03:31;;;;;;;8.25;7.43;;;;;;;35.57;77.67;99079.09;5159506;27;20412;-54
2023/06/21 07:05:57;;;;;;;15.50;8.48;;;;;;;35.76;69.54;99087.66;5159761;27;20118;-58
2023/06/21 07:08:23;;;;;;;9.02;7.32;;;;;;;35.60;65.94;99098.00;5160180;27;20384;-65
2023/06/21 07:10:50;;;;;;;8.75;7.35;;;;;;;35.44;66.28;99094.03;5159660;27;20043;-58
2023/06/21 07:13:17;;;;;;;8.10;7.13;;;;;;;35.19;65.75;99089.69;5159845;27;20202;-60
2023/06/21 07:15:43;;;;;;;7.57;6.88;;;;;;;34.70;67.66;99089.72;5159327;27;20074;-57
2023/06/21 07:18:10;;;;;;;12.50;7.03;;;;;;;34.84;68.26;99085.69;5159973;27;20054;-55
2023/06/21 07:20:36;;;;;;;10.30;7.60;;;;;;;35.64;65.24;99089.88;5159509;27;20058;-59
2023/06/21 07:23:01;;;;;;;11.60;7.88;;;;;;;36.12;68.29;99081.66;5159478;27;20054;-60
2023/06/21 07:25:27;;;;;;;12.25;8.35;;;;;;;36.28;64.91;99097.72;5159408;27;20057;-59
2023/06/21 07:27:54;;;;;;;12.80;9.30;;;;;;;36.23;62.79;99096.50;5159689;27;20383;-55
2023/06/21 07:30:22;;;;;;;12.95;7.53;;;;;;;36.34;60.37;99104.09;5159338;27;20143;-51
2023/06/21 07:32:48;;;;;;;10.40;7.53;;;;;;;36.03;61.01;99085.69;5159556;27;20422;-57
2023/06/21 07:35:15;;;;;;;7.95;7.18;;;;;;;35.88;60.19;99094.72;5159470;27;20055;-54
2023/06/21 07:37:41;;;;;;;9.13;7.40;;;;;;;35.80;62.62;99094.56;5159028;27;20046;-57
2023/06/21 07:40:08;;;;;;;10.20;7.47;;;;;;;36.02;64.94;99084.94;5159374;27;20137;-61
2023/06/21 07:42:34;;;;;;;12.57;8.05;;;;;;;36.45;62.58;99086.78;5159194;27;20050;-54
2023/06/21 07:45:01;;;;;;;8.75;7.22;;;;;;;36.30;62.13;99089.41;5159382;27;20058;-58
2023/06/21 07:47:27;;;;;;;10.25;7.88;;;;;;;35.70;63.58;99089.81;5159032;27;20178;-55
2023/06/21 07:49:53;;;;;;;8.25;7.50;;;;;;;35.62;62.02;99086.78;5159241;27;20054;-55
2023/06/21 07:52:19;;;;;;;8.68;7.22;;;;;;;35.18;61.27;99088.91;5158809;27;20047;-56
2023/06/21 07:54:48;;;;;;;11.68;7.35;;;;;;;35.73;60.46;99098.06;5159331;27;20110;-58
2023/06/21 07:57:15;;;;;;;8.00;7.30;;;;;;;35.95;58.85;99096.94;5158768;27;20051;-57
2023/06/21 07:59:41;;;;;;;10.55;7.10;;;;;;;35.70;59.49;99098.38;5159258;27;20119;-55
2023/06/21 08:02:08;;;;;;;9.80;7.57;;;;;;;35.53;60.17;99087.97;5158612;27;20391;-56
2023/06/21 08:04:33;;;;;;;8.57;7.32;;;;;;;35.59;61.25;99090.75;5158838;27;20122;-59
2023/06/21 08:06:59;;;;;;;7.82;6.32;;;;;;;35.46;57.56;99096.34;5158925;27;20406;-61
2023/06/21 08:09:26;;;;;;;9.23;7.68;;;;;;;35.24;55.73;99103.09;5158504;27;20137;-59
2023/06/21 08:11:52;;;;;;;8.65;7.30;;;;;;;35.17;57.58;99098.78;5158963;27;20379;-61
2023/06/21 08:14:18;;;;;;;8.85;7.28;;;;;;;35.69;58.35;99097.59;5158971;27;20047;-56
2023/06/21 08:16:45;;;;;;;7.35;6.65;;;;;;;35.88;56.34;99099.66;5158924;27;20475;-53
2023/06/21 08:19:11;;;;;;;7.25;6.55;;;;;;;36.17;54.00;99095.06;5158651;27;20050;-54
2023/06/21 08:21:38;;;;;;;8.15;6.28;;;;;;;36.32;52.67;99091.69;5158796;27;20456;-53
2023/06/21 08:24:04;;;;;;;8.80;6.72;;;;;;;36.55;52.91;99094.94;5158367;27;20047;-55
2023/06/21 08:26:30;;;;;;;7.88;6.63;;;;;;;35.57;53.93;99096.22;5159049;27;20159;-57
2023/06/21 08:28:56;;;;;;;6.72;6.07;;;;;;;35.18;52.30;99091.00;5158297;27;20142;-53
2023/06/21 08:31:22;;;;;;;7.18;6.13;;;;;;;34.88;54.05;99097.53;5158870;27;20405;-53
2023/06/21 08:33:48;;;;;;;9.10;6.57;;;;;;;34.29;55.83;99093.44;5158649;27;20047;-56
2023/06/21 08:36:15;;;;;;;8.85;6.32;;;;;;;33.37;57.82;99094.56;5158124;27;20485;-57
2023/06/21 08:38:41;;;;;;;8.13;7.32;;;;;;;32.98;58.43;99086.19;5158280;27;20421;-56
2023/06/21 08:41:08;;;;;;;9.32;7.50;;;;;;;32.90;61.03;99085.16;5158149;27;20058;-57
2023/06/21 08:43:34;;;;;;;11.05;7.30;;;;;;;33.38;61.25;99089.63;5158371;27;20472;-56
2023/06/21 08:46:03;;;;;;;8.40;6.97;;;;;;;33.27;62.47;99087.63;5158260;27;20057;-56
2023/06/21 08:48:30;;;;;;;11.63;7.60;;;;;;;32.46;66.02;99087.59;5158402;27;20047;-56
2023/06/21 08:50:57;;;;;;;7.85;7.05;;;;;;;31.53;65.49;99087.75;5158100;27;20050;-55
2023/06/21 08:53:31;;;;;;;11.15;7.28;;;;;;;31.06;72.33;99075.97;5158459;27;20050;-55
2023/06/21 08:55:59;;;;;;;8.68;7.75;;;;;;;31.18;69.71;99071.88;5158105;27;20145;-59
2023/06/21 08:58:30;;;;;;;8.07;7.32;;;;;;;30.94;71.49;99061.75;5157661;27;20141;-55
2023/06/21 09:00:59;;;;;;;8.68;7.88;;;;;;;31.01;70.09;99068.22;5157712;27;20050;-55
2023/06/21 09:03:28;;;;;;;8.70;7.28;;;;;;;30.70;73.21;99067.78;5157865;27;20043;-58
2023/06/21 09:05:58;;;;;;;7.57;6.88;;;;;;;30.23;69.80;99058.72;5158060;27;20141;-53
2023/06/21 09:08:26;;;;;;;9.20;6.97;;;;;;;29.88;73.05;99055.31;5158026;27;20055;-62
2023/06/21 09:10:53;;;;;;;13.40;7.20;;;;;;;29.47;75.28;99050.53;5158355;27;20137;-53
2023/06/21 09:13:20;;;;;;;7.90;7.20;;;;;;;29.50;72.31;99055.19;5157292;27;20413;-59
2023/06/21 09:15:48;;;;;;;8.95;7.28;;;;;;;29.61;76.55;99051.72;5157710;27;20055;-54
2023/06/21 09:18:15;;;;;;;8.63;7.30;;;;;;;30.33;69.90;99064.97;5157855;27;20050;-60
2023/06/21 09:20:43;;;;;;;9.35;7.07;;;;;;;31.01;66.20;99057.66;5158339;27;20095;-60
2023/06/21 09:23:09;;;;;;;7.65;6.85;;;;;;;31.27;58.95;99070.88;5157620;27;20042;-60
2023/06/21 09:25:36;;;;;;;8.48;6.88;;;;;;;31.91;58.49;99068.50;5157897;27;20081;-59
2023/06/21 09:28:02;;;;;;;7.38;6.75;;;;;;;32.57;56.55;99073.38;5157740;27;20327;-56
2023/06/21 09:30:28;;;;;;;7.05;6.40;;;;;;;33.17;54.27;99077.88;5157776;27;20332;-62
2023/06/21 09:32:54;;;;;;;7.63;6.63;;;;;;;33.55;55.68;99064.00;5157984;27;20082;-58
2023/06/21 09:35:20;;;;;;;6.65;6.05;;;;;;;34.02;52.76;99075.31;5157343;27;20055;-54
2023/06/21 09:37:46;;;;;;;6.63;5.95;;;;;;;34.52;52.69;99062.72;5157537;27;20427;-62
2023/06/21 09:40:13;;;;;;;6.53;5.68;;;;;;;34.65;51.49;99068.53;5157912;27;20079;-63
2023/06/21 09:42:40;;;;;;;6.30;5.70;;;;;;;34.64;49.37;99064.94;5158111;27;20051;-56
2023/06/21 09:45:11;;;;;;;6.88;6.28;;;;;;;35.80;48.23;99062.44;5157330;27;20149;-55
2023/06/21 09:47:39;;;;;;;8.60;6.13;;;;;;;36.31;48.76;99062.38;5157609;27;20134;-56
2023/06/21 09:50:06;;;;;;;6.25;5.57;;;;;;;36.08;49.63;99064.09;5157159;27;20145;-61
2023/06/21 09:52:32;;;;;;;8.40;6.35;;;;;;;36.13;50.71;99060.38;5157527;27;20046;-60
2023/06/21 09:54:59;;;;;;;7.28;5.63;;;;;;;36.05;50.63;99058.16;5157405;27;20058;-58
2023/06/21 09:57:29;;;;;;;7.70;5.68;;;;;;;34.37;51.17;99057.44;5157297;27;20042;-60
2023/06/21 09:59:56;;;;;;;5.65;5.15;;;;;;;34.41;50.02;99057.91;5157545;27;20046;-54
2023/06/21 10:02:22;;;;;;;7.20;5.75;;;;;;;34.25;50.52;99056.75;5156869;27;20067;-56
2023/06/21 10:04:54;;;;;;;6.82;5.70;;;;;;;33.29;51.71;99059.47;5157072;27;20051;-61
2023/06/21 10:07:20;;;;;;;6.45;5.95;;;;;;;32.17;55.38;99054.84;5156592;27;20050;-53
2023/06/21 10:09:48;;;;;;;8.15;6.35;;;;;;;31.74;57.97;99038.03;5157011;27;20051;-59
2023/06/21 10:12:15;;;;;;;9.77;6.13;;;;;;;31.49;59.86;99041.88;5156660;27;20053;-55
2023/06/21 10:14:42;;;;;;;7.57;6.28;;;;;;;30.59;61.77;99045.09;5157237;27;20046;-52
2023/06/21 10:17:09;;;;;;;9.48;6.65;;;;;;;29.78;64.65;99041.34;5156658;27;20339;-54
2023/06/21 10:19:35;;;;;;;7.68;6.78;;;;;;;29.93;66.77;99038.44;5156680;27;20406;-57
2023/06/21 10:22:04;;;;;;;6.80;6.10;;;;;;;29.52;68.15;99032.09;5156612;27;20141;-58
2023/06/21 10:24:34;;;;;;;6.45;5.93;;;;;;;29.27;67.49;99030.81;5157389;27;20050;-60
2023/06/21 10:27:00;;;;;;;9.55;6.13;;;;;;;29.26;67.69;99038.53;5160672;27;20107;-52
2023/06/21 10:29:29;;;;;;;8.48;6.30;;;;;;;28.83;69.76;99037.47;5159873;27;20145;-60
2023/06/21 10:31:56;;;;;;;8.48;6.50;;;;;;;30.13;68.52;99031.13;5160274;27;20060;-58
2023/06/21 10:34:27;;;;;;;9.25;6.57;;;;;;;30.99;65.70;99040.44;5160075;27;20050;-54
2023/06/21 10:37:01;;;;;;;6.72;6.03;;;;;;;30.95;59.58;99039.88;5160236;27;20304;-56
2023/06/21 10:39:30;;;;;;;6.65;5.93;;;;;;;31.27;59.51;99039.75;5159938;27;20121;-53
2023/06/21 10:41:57;;;;;;;7.10;6.40;;;;;;;30.97;59.08;99045.81;5160219;27;20192;-54
2023/06/21 10:44:23;;;;;;;7.32;6.63;;;;;;;30.80;59.65;99040.06;5160047;27;20172;-61
2023/06/21 10:46:50;;;;;;;8.40;6.68;;;;;;;31.00;59.95;99049.69;5159529;27;20416;-55
2023/06/21 10:49:17;;;;;;;9.27;6.90;;;;;;;31.42;57.67;99051.63;5159900;27;20086;-58
2023/06/21 10:51:45;;;;;;;7.10;6.50;;;;;;;30.48;59.01;99051.44;5159722;27;20109;-58
2023/06/21 10:54:12;;;;;;;8.68;6.95;;;;;;;30.43;58.58;99055.00;5159892;27;20050;-54
2023/06/21 10:56:39;;;;;;;7.78;6.28;;;;;;;30.56;58.75;99048.16;5159601;27;20204;-57
2023/06/21 10:59:05;;;;;;;6.93;6.22;;;;;;;30.34;57.35;99046.72;5159856;27;20141;-58
2023/06/21 11:01:31;;;;;;;8.00;6.20;;;;;;;30.40;61.24;99041.88;5159522;27;20141;-59
2023/06/21 11:03:57;;;;;;;7.65;6.68;;;;;;;30.22;60.72;99039.44;5159755;27;20061;-54
2023/06/21 11:06:26;;;;;;;6.97;6.38;;;;;;;30.26;62.11;99042.81;5159701;27;20312;-57
2023/06/21 11:08:53;;;;;;;7.72;7.03;;;;;;;30.28;58.59;99050.78;5159583;27;20083;-55
2023/06/21 11:11:33;;;;;;;7.30;6.60;;;;;;;30.33;57.87;99050.06;5159327;27;20061;-54
2023/06/21 11:14:01;;;;;;;8.23;6.97;;;;;;;30.61;58.20;99041.75;5158999;27;20142;-53
2023/06/21 11:16:30;;;;;;;8.95;7.00;;;;;;;30.24;60.55;99034.81;5159747;27;20448;-59
2023/06/21 11:18:58;;;;;;;7.05;6.43;;;;;;;30.47;60.54;99038.56;5159239;27;20147;-57